Time;durP1;ratioP1;P1;durP2;ratioP2;P2;SDS_P1;SDS_P2;PMS_P1;PMS_P2;Temp;Humidity;BMP_temperature;BMP_pressure;BME280_temperature;BME280_humidity;BME280_pressure;Samples;Min_cycle;Max_cycle;Signal;HPM_P1;HPM_P2
2022/01/22 00:00:46;;;;;;;5.72;1.95;;;;;;;18.57;44.15;103304.44;5054789;28;20021;-65
2022/01/22 00:03:12;;;;;;;8.63;2.20;;;;;;;18.56;43.71;103296.59;5053973;28;20025;-66
2022/01/22 00:05:37;;;;;;;6.53;2.40;;;;;;;18.53;43.98;103294.94;5054251;28;20111;-66
2022/01/22 00:08:06;;;;;;;6.65;2.20;;;;;;;18.52;43.73;103300.28;5053752;28;20021;-65
2022/01/22 00:10:32;;;;;;;7.57;1.95;;;;;;;18.49;43.82;103290.72;5054097;28;20043;-65
2022/01/22 00:15:30;;;;;;;11.13;2.40;;;;;;;18.44;43.73;103290.06;5053208;28;20029;-66
2022/01/22 00:18:00;;;;;;;10.30;2.00;;;;;;;18.42;43.88;103283.97;5054574;28;20074;-66
2022/01/22 00:20:27;;;;;;;7.75;2.10;;;;;;;18.41;44.05;103285.78;5053673;28;20039;-65
2022/01/22 00:22:53;;;;;;;8.93;1.98;;;;;;;18.38;43.81;103290.34;5053382;28;20025;-65
2022/01/22 00:25:20;;;;;;;6.80;1.98;;;;;;;18.36;44.20;103281.59;5053405;28;20401;-65
2022/01/22 00:27:48;;;;;;;10.05;2.70;;;;;;;18.33;44.23;103279.97;5053856;28;20435;-65
2022/01/22 00:30:16;;;;;;;5.80;1.90;;;;;;;18.31;43.91;103287.97;5052852;28;20385;-66
2022/01/22 00:32:45;;;;;;;6.88;1.88;;;;;;;18.29;43.79;103276.63;5053942;28;20032;-65
2022/01/22 00:35:14;;;;;;;6.35;1.98;;;;;;;18.28;44.06;103272.25;5053470;28;20032;-65
2022/01/22 00:37:42;;;;;;;8.32;2.40;;;;;;;18.26;44.06;103267.97;5052351;28;20037;-64
2022/01/22 00:40:18;;;;;;;9.00;2.00;;;;;;;18.24;44.23;103261.91;5053641;28;20053;-65
2022/01/22 00:42:45;;;;;;;6.13;2.00;;;;;;;18.23;44.11;103270.72;5052842;28;20516;-65
2022/01/22 00:45:11;;;;;;;7.70;1.90;;;;;;;18.21;44.19;103269.94;5053251;28;20029;-66
2022/01/22 00:47:37;;;;;;;7.45;1.83;;;;;;;18.19;43.99;103277.09;5053524;28;20025;-66
2022/01/22 00:50:05;;;;;;;6.55;2.00;;;;;;;18.17;44.36;103263.09;5052756;28;20024;-66
2022/01/22 00:52:30;;;;;;;8.45;2.00;;;;;;;18.15;44.33;103260.53;5053093;28;20029;-66
2022/01/22 00:54:55;;;;;;;6.40;2.03;;;;;;;18.14;44.13;103266.72;5053583;28;20079;-66
2022/01/22 00:57:21;;;;;;;5.87;1.90;;;;;;;18.11;44.11;103269.50;5052226;28;20033;-66
2022/01/22 00:59:46;;;;;;;7.75;2.30;;;;;;;18.09;44.03;103269.56;5053501;28;20366;-66
2022/01/22 01:02:14;;;;;;;5.47;1.80;;;;;;;18.08;44.15;103274.91;5053030;28;20032;-66
2022/01/22 01:04:39;;;;;;;6.07;1.63;;;;;;;18.06;44.27;103276.75;5052355;28;20171;-66
2022/01/22 01:07:05;;;;;;;9.02;2.30;;;;;;;18.05;44.31;103283.78;5053516;28;20017;-66
2022/01/22 01:09:33;;;;;;;6.05;1.77;;;;;;;18.05;44.02;103289.06;5053367;28;20033;-65
2022/01/22 01:12:02;;;;;;;8.40;2.30;;;;;;;18.04;44.39;103289.13;5052516;28;20086;-66
2022/01/22 01:14:35;;;;;;;7.03;2.10;;;;;;;18.02;44.26;103285.72;5052728;28;20029;-66
2022/01/22 01:33:27;;;;;;;5.65;1.70;;;;;;;17.90;44.19;103277.41;5051891;28;20047;-66
2022/01/22 01:35:53;;;;;;;7.10;2.03;;;;;;;17.88;44.56;103276.59;5052872;28;20380;-66
2022/01/22 01:38:21;;;;;;;7.43;2.22;;;;;;;17.88;44.39;103281.00;5052518;28;20040;-66
2022/01/22 01:40:55;;;;;;;6.70;2.00;;;;;;;17.85;44.21;103276.69;5052241;28;20033;-66
2022/01/22 01:43:26;;;;;;;8.00;2.00;;;;;;;17.85;44.22;103279.34;5052020;28;20076;-68
2022/01/22 01:45:57;;;;;;;8.70;2.30;;;;;;;17.85;44.19;103287.25;5052104;28;20028;-68
2022/01/22 01:48:37;;;;;;;9.95;2.30;;;;;;;17.85;44.67;103281.09;5051518;28;20052;-67
2022/01/22 01:51:03;;;;;;;9.85;2.78;;;;;;;17.86;44.50;103288.94;5053069;28;20024;-67
2022/01/22 01:58:28;;;;;;;6.25;1.85;;;;;;;17.92;44.78;103282.59;5052183;28;20075;-67
2022/01/22 02:00:55;;;;;;;4.93;1.73;;;;;;;17.95;44.78;103279.84;5051572;28;20465;-66
2022/01/22 02:03:21;;;;;;;9.52;2.03;;;;;;;17.97;44.67;103274.50;5051828;28;20082;-66
2022/01/22 02:05:50;;;;;;;8.00;2.10;;;;;;;17.99;44.30;103270.00;5052539;28;20021;-67
2022/01/22 02:08:17;;;;;;;8.50;2.20;;;;;;;17.99;44.37;103268.25;5051508;28;20021;-67
2022/01/22 02:10:54;;;;;;;7.85;2.08;;;;;;;18.01;44.52;103271.66;5052182;28;20041;-66
2022/01/22 02:24:39;;;;;;;8.23;2.03;;;;;;;18.03;43.90;103272.44;5052221;28;20209;-66
2022/01/22 02:27:04;;;;;;;9.93;2.50;;;;;;;18.04;43.94;103278.56;5052229;28;20025;-66
2022/01/22 02:29:29;;;;;;;5.32;1.83;;;;;;;18.04;44.17;103273.31;5050971;28;20037;-66
2022/01/22 02:34:50;;;;;;;8.53;2.07;;;;;;;18.03;44.08;103271.59;5052403;28;20479;-66
2022/01/22 02:37:17;;;;;;;7.55;2.10;;;;;;;18.02;44.01;103265.44;5051143;28;20764;-66
2022/01/22 02:39:59;;;;;;;8.27;2.50;;;;;;;18.01;43.72;103276.94;5051939;28;20135;-66
2022/01/22 02:42:30;;;;;;;8.85;2.05;;;;;;;17.98;43.97;103268.31;5050857;28;20037;-66
2022/01/22 02:44:58;;;;;;;9.90;2.30;;;;;;;18.00;44.10;103275.22;5052011;28;20037;-66
2022/01/22 02:47:23;;;;;;;8.98;2.78;;;;;;;18.01;44.70;103278.72;5051633;28;20112;-66
2022/01/22 02:49:49;;;;;;;9.10;2.45;;;;;;;18.00;44.65;103277.84;5051350;28;20104;-66
2022/01/22 02:52:17;;;;;;;11.55;2.53;;;;;;;18.00;44.65;103280.50;5052142;28;20107;-66
2022/01/22 02:54:43;;;;;;;9.80;2.58;;;;;;;18.02;44.55;103288.34;5051730;28;20674;-66
2022/01/22 02:57:09;;;;;;;6.70;2.00;;;;;;;18.03;44.87;103282.16;5050741;28;20021;-66
2022/01/22 02:59:35;;;;;;;6.28;2.33;;;;;;;18.03;44.47;103282.16;5052553;28;20021;-66
2022/01/22 03:02:02;;;;;;;6.47;2.20;;;;;;;18.02;44.64;103283.91;5055554;28;20016;-66
2022/01/22 03:04:28;;;;;;;7.55;2.30;;;;;;;18.04;44.26;103287.38;5054646;28;20083;-66
2022/01/22 03:06:53;;;;;;;7.93;2.10;;;;;;;18.04;44.36;103284.75;5055512;28;20064;-67
2022/01/22 03:09:26;;;;;;;9.15;2.75;;;;;;;18.05;44.55;103280.31;5055247;28;20075;-67
2022/01/22 03:15:11;;;;;;;7.25;2.05;;;;;;;18.04;44.41;103284.75;5055222;28;20037;-65
2022/01/22 03:17:48;;;;;;;10.45;2.83;;;;;;;18.05;44.39;103285.59;5054111;28;20083;-66
2022/01/22 03:28:09;;;;;;;6.25;1.98;;;;;;;18.02;44.41;103278.63;5055712;28;20075;-66
2022/01/22 03:30:34;;;;;;;7.63;2.55;;;;;;;18.03;44.08;103282.16;5054953;28;20029;-66
2022/01/22 03:33:00;;;;;;;7.18;2.33;;;;;;;18.00;44.27;103283.13;5054170;28;20078;-65
2022/01/22 03:35:27;;;;;;;8.27;2.28;;;;;;;18.00;44.37;103282.28;5054424;28;20021;-65
2022/01/22 03:37:55;;;;;;;8.07;2.70;;;;;;;17.99;44.16;103280.56;5054670;28;20051;-65
2022/01/22 03:40:23;;;;;;;8.68;2.30;;;;;;;18.00;44.42;103277.00;5053676;28;20365;-65
2022/01/22 03:42:51;;;;;;;6.40;2.30;;;;;;;17.99;44.84;103276.16;5054885;28;20044;-66
2022/01/22 03:45:18;;;;;;;8.93;2.30;;;;;;;18.00;44.97;103283.13;5054165;28;20036;-66
2022/01/22 03:47:43;;;;;;;10.07;2.45;;;;;;;18.00;45.22;103285.78;5054082;28;20090;-66
2022/01/22 03:50:11;;;;;;;7.18;2.30;;;;;;;18.00;44.90;103284.94;5054418;28;20342;-66
2022/01/22 03:52:36;;;;;;;7.80;2.72;;;;;;;18.00;44.93;103285.78;5053823;28;20021;-66
2022/01/22 03:55:05;;;;;;;8.70;2.30;;;;;;;18.02;45.13;103283.91;5054721;28;20029;-65
2022/01/22 03:57:30;;;;;;;9.15;2.60;;;;;;;18.03;45.00;103279.53;5054121;28;20029;-65
2022/01/22 03:59:56;;;;;;;7.43;2.78;;;;;;;18.03;44.68;103284.81;5053877;28;20036;-66
2022/01/22 04:05:06;;;;;;;7.80;2.28;;;;;;;18.02;44.56;103276.00;5054502;28;20051;-65
2022/01/22 04:10:02;;;;;;;6.75;2.30;;;;;;;18.03;44.38;103272.44;5054374;28;20044;-66
2022/01/22 04:12:41;;;;;;;8.18;2.75;;;;;;;18.01;44.54;103273.44;5053140;28;20048;-67
2022/01/22 04:15:09;;;;;;;8.25;2.92;;;;;;;18.02;44.81;103278.63;5053467;28;20381;-66
2022/01/22 04:25:32;;;;;;;7.88;2.72;;;;;;;18.03;45.32;103279.53;5053774;28;20347;-66
2022/01/22 04:28:00;;;;;;;11.43;3.10;;;;;;;18.03;45.27;103275.09;5053511;28;20405;-65
2022/01/22 04:30:28;;;;;;;8.07;3.13;;;;;;;18.04;45.25;103274.19;5053621;28;20154;-66
2022/01/22 04:32:56;;;;;;;8.07;3.33;;;;;;;18.04;45.29;103278.56;5053868;28;20033;-66
2022/01/22 04:35:25;;;;;;;9.57;3.03;;;;;;;18.04;45.04;103273.31;5052489;28;20048;-65
2022/01/22 04:37:50;;;;;;;13.00;3.00;;;;;;;18.04;44.87;103274.19;5053933;28;20047;-66
2022/01/22 04:40:16;;;;;;;8.13;2.90;;;;;;;18.04;44.90;103268.91;5053744;28;20025;-66
2022/01/22 04:42:43;;;;;;;9.88;3.15;;;;;;;18.04;44.74;103278.56;5052915;28;20278;-66
2022/01/22 04:45:21;;;;;;;9.98;3.40;;;;;;;18.04;44.74;103278.56;5053378;28;20072;-66
2022/01/22 04:47:57;;;;;;;9.80;3.05;;;;;;;18.03;44.64;103279.53;5053638;28;20084;-66
2022/01/22 04:55:43;;;;;;;9.50;3.40;;;;;;;18.05;45.20;103283.78;5053453;28;20745;-66
2022/01/22 04:58:09;;;;;;;7.85;3.13;;;;;;;18.05;45.42;103283.78;5053254;28;20036;-66
2022/01/22 05:00:38;;;;;;;10.40;3.80;;;;;;;18.06;45.21;103276.75;5053484;28;20029;-66
2022/01/22 05:03:04;;;;;;;10.35;3.47;;;;;;;18.03;45.26;103277.72;5052451;28;20505;-66
2022/01/22 05:05:31;;;;;;;9.45;3.30;;;;;;;18.06;45.49;103282.03;5052835;28;20043;-66
2022/01/22 05:07:56;;;;;;;9.50;3.60;;;;;;;18.06;45.29;103285.53;5053348;28;20124;-65
2022/01/22 05:10:22;;;;;;;10.02;3.83;;;;;;;18.06;44.95;103274.13;5052107;28;20520;-66
2022/01/22 05:12:47;;;;;;;8.68;3.42;;;;;;;18.06;45.15;103274.13;5053254;28;20539;-66
2022/01/22 05:15:14;;;;;;;7.97;3.30;;;;;;;18.06;44.99;103277.59;5052817;28;20428;-66
2022/01/22 05:17:42;;;;;;;11.48;4.03;;;;;;;18.06;45.36;103279.41;5052256;28;20094;-67
2022/01/22 05:20:21;;;;;;;7.70;3.38;;;;;;;18.05;45.16;103269.75;5052889;28;20040;-66
2022/01/22 05:25:40;;;;;;;9.02;3.40;;;;;;;18.05;45.30;103270.59;5051727;28;20037;-66
2022/01/22 05:39:17;;;;;;;10.00;3.60;;;;;;;18.05;45.41;103262.69;5051500;28;20507;-65
2022/01/22 05:41:43;;;;;;;9.43;3.45;;;;;;;18.06;45.55;103261.78;5052587;28;20064;-65
2022/01/22 05:44:08;;;;;;;11.98;3.35;;;;;;;18.06;45.56;103274.13;5052297;28;20065;-65
2022/01/22 05:46:34;;;;;;;9.55;3.20;;;;;;;18.05;45.59;103272.38;5051860;28;20025;-65
2022/01/22 05:48:59;;;;;;;8.13;2.92;;;;;;;18.06;45.64;103277.59;5052939;28;20118;-65
2022/01/22 05:51:25;;;;;;;9.43;3.65;;;;;;;18.06;45.32;103274.13;5052311;28;20025;-65
2022/01/22 06:01:56;;;;;;;9.77;3.67;;;;;;;18.06;46.02;103277.59;5055377;28;20166;-65
2022/01/22 06:04:22;;;;;;;9.50;3.55;;;;;;;18.07;46.36;103274.06;5051958;28;20400;-66
2022/01/22 06:06:47;;;;;;;10.02;3.67;;;;;;;18.09;46.97;103276.63;5051882;28;20046;-65
2022/01/22 06:09:12;;;;;;;8.87;3.10;;;;;;;18.12;47.05;103287.06;5052080;28;20021;-66
2022/01/22 06:11:53;;;;;;;8.18;2.70;;;;;;;18.13;47.09;103281.72;5052126;28;20290;-65
2022/01/22 06:14:18;;;;;;;10.05;2.75;;;;;;;18.16;47.19;103285.97;5051306;28;20106;-64
2022/01/22 06:16:44;;;;;;;11.40;3.05;;;;;;;18.18;47.37;103291.19;5052286;28;20060;-66
2022/01/22 06:19:10;;;;;;;12.30;3.05;;;;;;;18.20;47.08;103289.34;5051982;28;20025;-66
2022/01/22 06:21:35;;;;;;;12.60;4.78;;;;;;;18.17;45.36;103287.72;5051209;28;20350;-65
2022/01/22 06:24:00;;;;;;;8.57;3.33;;;;;;;18.18;46.81;103284.13;5051743;28;20079;-66
2022/01/22 06:26:25;;;;;;;8.98;2.65;;;;;;;18.19;46.98;103274.44;5051939;28;20036;-65
2022/01/22 06:28:51;;;;;;;11.83;2.70;;;;;;;18.21;47.67;103280.50;5051528;28;20488;-66
2022/01/22 06:31:16;;;;;;;7.60;2.63;;;;;;;18.22;47.65;103272.53;5051781;28;20285;-66
2022/01/22 06:33:41;;;;;;;7.70;2.67;;;;;;;18.25;47.60;103282.94;5052045;28;20295;-66
2022/01/22 06:36:06;;;;;;;7.65;2.65;;;;;;;18.26;47.38;103279.41;5054625;28;20028;-66
2022/01/22 06:38:33;;;;;;;10.73;3.20;;;;;;;18.28;47.34;103279.34;5055939;28;20469;-65
2022/01/22 06:43:42;;;;;;;7.95;2.50;;;;;;;18.31;47.45;103284.47;5055747;28;20522;-66
2022/01/22 06:46:07;;;;;;;5.67;2.70;;;;;;;18.33;46.90;103289.69;5055705;28;20041;-65
2022/01/22 06:48:33;;;;;;;7.38;2.88;;;;;;;18.34;47.10;103291.38;5054981;28;20033;-64
2022/01/22 06:50:59;;;;;;;10.03;2.60;;;;;;;18.36;46.79;103300.09;5056037;28;20468;-66
2022/01/22 06:53:24;;;;;;;9.45;2.65;;;;;;;18.37;47.31;103296.53;5055327;28;20810;-65
2022/01/22 06:56:01;;;;;;;9.02;2.38;;;;;;;18.37;47.16;103302.66;5055454;28;20033;-66
2022/01/22 06:58:27;;;;;;;9.07;2.10;;;;;;;18.40;47.03;103301.69;5055378;28;20041;-65
2022/01/22 07:00:52;;;;;;;9.00;2.53;;;;;;;18.42;47.47;103302.47;5055572;28;20036;-65
2022/01/22 07:03:21;;;;;;;8.77;2.05;;;;;;;18.43;47.58;103306.84;5054421;28;20515;-66
2022/01/22 07:05:46;;;;;;;10.23;2.80;;;;;;;18.43;47.31;103302.41;5055667;28;20102;-66
2022/01/22 07:08:12;;;;;;;9.73;2.22;;;;;;;18.43;47.54;103305.03;5055274;28;20468;-66
2022/01/22 07:10:37;;;;;;;8.60;2.33;;;;;;;18.46;47.48;103304.91;5054577;28;20024;-67
2022/01/22 07:13:03;;;;;;;10.30;2.63;;;;;;;18.47;47.27;103309.28;5055454;28;20033;-65
2022/01/22 07:15:28;;;;;;;10.20;2.25;;;;;;;18.48;47.42;103320.69;5054879;28;20108;-66
2022/01/22 07:17:55;;;;;;;8.98;2.63;;;;;;;18.48;47.39;103329.47;5054732;28;20488;-66
2022/01/22 07:20:28;;;;;;;8.50;2.33;;;;;;;18.49;47.61;103333.81;5054980;28;20044;-65
2022/01/22 07:23:01;;;;;;;10.85;3.78;;;;;;;18.45;45.75;103334.03;5055317;28;20144;-66
2022/01/22 07:25:27;;;;;;;7.93;2.80;;;;;;;18.46;46.25;103339.22;5053930;28;20109;-65
2022/01/22 07:27:53;;;;;;;8.90;3.10;;;;;;;18.47;46.43;103342.75;5055206;28;20106;-67
2022/01/22 07:30:21;;;;;;;7.88;2.40;;;;;;;18.51;46.82;103338.19;5055335;28;20469;-65
2022/01/22 07:32:46;;;;;;;9.70;2.13;;;;;;;18.53;46.60;103337.19;5054493;28;20025;-68
2022/01/22 07:35:19;;;;;;;7.43;2.08;;;;;;;18.58;47.00;103336.97;5054747;28;20040;-65
2022/01/22 07:37:44;;;;;;;8.27;2.60;;;;;;;18.59;46.16;103349.28;5054161;28;20029;-67
2022/01/22 07:40:11;;;;;;;8.00;2.15;;;;;;;18.61;46.88;103348.28;5054761;28;20472;-68
2022/01/22 07:42:37;;;;;;;6.07;2.30;;;;;;;18.63;47.01;103350.88;5054642;28;20022;-68
2022/01/22 07:45:04;;;;;;;9.30;2.40;;;;;;;18.65;47.23;103352.50;5054271;28;20116;-66
2022/01/22 07:47:29;;;;;;;7.40;2.08;;;;;;;18.67;46.96;103357.72;5053022;28;20115;-67
2022/01/22 07:49:55;;;;;;;7.68;2.00;;;;;;;18.67;46.94;103350.66;5054825;28;20100;-66
2022/01/22 07:52:20;;;;;;;8.65;1.88;;;;;;;18.71;47.05;103348.75;5053565;28;20129;-66
2022/01/22 07:54:45;;;;;;;6.83;1.70;;;;;;;18.73;46.64;103353.94;5054600;28;20021;-66
2022/01/22 07:57:11;;;;;;;10.85;2.10;;;;;;;18.74;47.10;103350.38;5054111;28;20278;-66
2022/01/22 07:59:36;;;;;;;8.77;2.15;;;;;;;18.77;47.06;103347.59;5054030;28;20037;-66
2022/01/22 08:02:03;;;;;;;7.10;2.00;;;;;;;18.79;47.01;103343.97;5054583;28;20395;-66
2022/01/22 08:04:29;;;;;;;7.28;2.33;;;;;;;18.82;46.86;103342.97;5054062;28;20368;-67
2022/01/22 08:06:57;;;;;;;7.38;2.17;;;;;;;18.85;47.13;103351.66;5053911;28;20061;-66
2022/01/22 08:09:23;;;;;;;6.00;2.00;;;;;;;18.87;46.86;103343.66;5053852;28;20021;-66
2022/01/22 08:11:48;;;;;;;10.07;2.35;;;;;;;18.90;46.73;103343.53;5054360;28;20031;-67
2022/01/22 08:14:14;;;;;;;9.40;2.20;;;;;;;18.92;47.01;103348.75;5053482;28;20029;-67
2022/01/22 08:16:39;;;;;;;5.28;1.70;;;;;;;18.94;46.88;103346.88;5054011;28;20021;-67
2022/01/22 08:19:05;;;;;;;9.52;2.28;;;;;;;18.93;47.13;103335.47;5054310;28;20104;-67
2022/01/22 08:21:30;;;;;;;7.60;1.90;;;;;;;18.96;46.96;103347.66;5053141;28;20472;-66
2022/01/22 08:23:56;;;;;;;6.68;2.03;;;;;;;18.97;46.91;103341.44;5053985;28;20025;-66
2022/01/22 08:26:26;;;;;;;7.78;1.85;;;;;;;18.98;47.15;103345.81;5053652;28;20055;-66
2022/01/22 08:28:57;;;;;;;6.40;1.77;;;;;;;18.99;47.35;103358.97;5053631;28;20433;-65
2022/01/22 08:36:44;;;;;;;9.00;2.05;;;;;;;18.96;47.29;103345.88;5054036;28;20090;-66
2022/01/22 08:39:10;;;;;;;9.90;2.00;;;;;;;18.97;46.86;103347.59;5053379;28;20125;-66
2022/01/22 08:41:36;;;;;;;6.43;1.80;;;;;;;18.96;47.42;103342.38;5053567;28;20028;-66
2022/01/22 08:44:03;;;;;;;7.75;2.22;;;;;;;18.98;47.29;103348.47;5053743;28;20039;-68
2022/01/22 08:46:29;;;;;;;8.57;2.58;;;;;;;18.98;47.54;103341.38;5053122;28;20048;-65
2022/01/22 08:48:55;;;;;;;9.30;2.53;;;;;;;18.99;47.34;103344.88;5052941;28;20021;-66
2022/01/22 08:51:20;;;;;;;9.90;2.35;;;;;;;18.99;47.37;103344.88;5053049;28;20139;-66
2022/01/22 08:53:47;;;;;;;8.27;1.88;;;;;;;18.99;47.33;103343.09;5053543;28;20484;-67
2022/01/22 08:56:13;;;;;;;7.45;2.22;;;;;;;19.01;47.13;103337.75;5052693;28;20461;-66
2022/01/22 08:58:38;;;;;;;8.25;1.95;;;;;;;19.01;47.22;103349.16;5053237;28;20036;-67
2022/01/22 09:01:04;;;;;;;6.95;2.10;;;;;;;19.03;47.32;103359.66;5053531;28;20052;-66
2022/01/22 09:03:30;;;;;;;9.18;2.33;;;;;;;19.02;47.42;103365.88;5052412;28;20057;-67
2022/01/22 09:05:56;;;;;;;6.75;1.80;;;;;;;19.03;47.28;103359.66;5053618;28;20068;-67
2022/01/22 09:08:24;;;;;;;7.97;2.03;;;;;;;19.03;47.38;103367.59;5058556;28;20033;-66
2022/01/22 09:10:50;;;;;;;6.88;2.08;;;;;;;19.03;47.42;103371.09;5061515;28;20025;-67
2022/01/22 09:13:15;;;;;;;7.43;1.75;;;;;;;19.02;47.25;103373.81;5063567;28;20078;-65
2022/01/22 09:15:44;;;;;;;8.82;2.17;;;;;;;19.03;47.21;103384.31;5063124;28;20044;-67
2022/01/22 09:18:09;;;;;;;7.15;1.80;;;;;;;19.05;47.27;103378.09;5062217;28;20081;-68
2022/01/22 09:23:08;;;;;;;7.65;1.92;;;;;;;19.08;47.80;103381.47;5053359;28;20484;-71
2022/01/22 09:25:33;;;;;;;11.45;2.15;;;;;;;19.14;48.28;103385.63;5054290;28;20033;-71
2022/01/22 09:27:59;;;;;;;10.20;2.42;;;;;;;19.19;48.33;103387.09;5054801;28;20479;-70
2022/01/22 09:30:25;;;;;;;9.60;2.47;;;;;;;19.29;48.10;103378.75;5052221;28;20057;-72
2022/01/22 09:32:50;;;;;;;8.60;3.08;;;;;;;19.32;46.37;103378.63;5053057;28;20021;-67
2022/01/22 09:35:16;;;;;;;9.25;2.28;;;;;;;19.37;47.25;103379.25;5053024;28;20482;-67
2022/01/22 09:37:42;;;;;;;7.72;2.42;;;;;;;19.41;47.35;103380.84;5052024;28;20049;-65
2022/01/22 09:40:08;;;;;;;12.93;2.08;;;;;;;19.46;47.40;103381.47;5052563;28;20025;-67
2022/01/22 09:42:36;;;;;;;10.75;2.97;;;;;;;19.51;47.53;103389.19;5053742;28;20027;-67
2022/01/22 09:45:03;;;;;;;8.85;2.95;;;;;;;19.53;47.71;103390.81;5052049;28;20404;-67
2022/01/22 09:47:29;;;;;;;10.13;2.50;;;;;;;19.51;47.73;103400.63;5052287;28;20108;-69
2022/01/22 09:49:55;;;;;;;9.82;2.42;;;;;;;19.56;47.15;103403.91;5052729;28;20445;-69
2022/01/22 09:52:22;;;;;;;9.43;2.40;;;;;;;19.60;47.14;103409.03;5052262;28;20392;-69
2022/01/22 09:54:47;;;;;;;8.60;2.92;;;;;;;19.62;46.88;103412.50;5054546;28;20021;-69
2022/01/22 09:57:14;;;;;;;8.68;2.50;;;;;;;19.63;47.08;103407.13;5052574;28;20033;-69
2022/01/22 09:59:39;;;;;;;9.23;2.33;;;;;;;19.66;46.73;103411.41;5052328;28;20048;-70
2022/01/22 10:02:15;;;;;;;11.13;2.60;;;;;;;19.68;46.92;103414.84;5052662;28;20029;-69
2022/01/22 10:04:45;;;;;;;11.93;3.13;;;;;;;19.69;46.71;103408.63;5052578;28;20029;-69
2022/01/22 10:07:18;;;;;;;9.68;2.63;;;;;;;19.70;46.42;103413.00;5051472;28;20469;-68
2022/01/22 10:10:02;;;;;;;11.73;2.90;;;;;;;19.70;46.50;103411.19;5051823;28;20021;-68
2022/01/22 10:12:30;;;;;;;7.15;2.05;;;;;;;19.71;46.50;103418.22;5051654;28;20029;-68
2022/01/22 10:15:15;;;;;;;8.23;2.53;;;;;;;19.74;46.53;103417.19;5052413;28;20489;-66
2022/01/22 10:17:48;;;;;;;10.23;2.88;;;;;;;19.75;46.52;103411.81;5052445;28;20029;-67
2022/01/22 10:20:23;;;;;;;7.63;2.13;;;;;;;19.77;46.38;103408.28;5051976;28;20025;-68
2022/01/22 10:23:19;;;;;;;12.52;2.40;;;;;;;19.78;46.30;103416.16;5052440;28;20041;-69
2022/01/22 10:25:52;;;;;;;9.35;2.88;;;;;;;19.79;46.43;103415.22;5052250;28;20045;-71
2022/01/22 10:28:24;;;;;;;7.32;2.20;;;;;;;19.79;46.23;103407.28;5052028;28;20078;-69
2022/01/22 10:30:58;;;;;;;11.00;2.58;;;;;;;19.79;46.25;103414.34;5052546;28;20051;-69
2022/01/22 10:35:50;;;;;;;13.05;3.03;;;;;;;19.76;46.22;103410.09;5052878;28;19951;-66
2022/01/22 10:38:18;;;;;;;8.18;2.38;;;;;;;19.77;46.25;103417.06;5051930;28;20465;-65
2022/01/22 10:40:45;;;;;;;7.78;2.47;;;;;;;19.74;46.11;103411.91;5051722;28;20487;-65
2022/01/22 10:43:21;;;;;;;9.43;2.55;;;;;;;19.72;46.01;103413.75;5051951;28;20025;-69
2022/01/22 10:46:43;;;;;;;10.55;3.30;;;;;;;19.71;46.08;103406.75;5052480;28;20041;-70
2022/01/22 10:49:11;;;;;;;10.27;3.08;;;;;;;19.72;46.26;103408.47;5050982;28;20029;-70
2022/01/22 10:51:55;;;;;;;8.60;2.75;;;;;;;19.72;46.12;103408.47;5052658;28;20033;-66
2022/01/22 10:54:23;;;;;;;14.20;3.42;;;;;;;19.71;46.21;103420.84;5051413;28;20108;-68
2022/01/22 10:56:49;;;;;;;13.68;3.22;;;;;;;19.69;45.96;103424.50;5051809;28;20052;-65
2022/01/22 10:59:18;;;;;;;12.55;2.88;;;;;;;19.66;45.43;103419.34;5051844;28;20112;-68
2022/01/22 11:01:43;;;;;;;11.02;3.05;;;;;;;19.66;45.82;103419.34;5051341;28;20443;-65
2022/01/22 11:04:10;;;;;;;11.10;2.90;;;;;;;19.65;45.71;103423.78;5051480;28;20039;-71
2022/01/22 11:06:36;;;;;;;10.93;2.75;;;;;;;19.67;46.39;103421.06;5051699;28;20041;-71
2022/01/22 11:09:06;;;;;;;13.95;3.13;;;;;;;19.68;46.23;103417.50;5050903;28;20117;-70
2022/01/22 11:11:36;;;;;;;9.90;2.65;;;;;;;19.68;46.23;103417.50;5051490;28;20492;-70
2022/01/22 11:14:04;;;;;;;8.50;3.15;;;;;;;19.66;46.21;103417.56;5051769;28;20064;-73
2022/01/22 11:16:30;;;;;;;7.25;2.63;;;;;;;19.65;46.04;103409.72;5051212;28;20040;-74
2022/01/22 11:18:56;;;;;;;9.98;2.78;;;;;;;19.64;46.04;103406.19;5052197;28;20381;-71
2022/01/22 11:21:23;;;;;;;8.30;3.15;;;;;;;19.59;45.06;103410.84;5053587;28;20033;-72
2022/01/22 11:23:49;;;;;;;10.57;2.80;;;;;;;19.56;45.88;103401.25;5054701;28;20028;-68
2022/01/22 11:26:15;;;;;;;10.98;2.20;;;;;;;19.55;46.06;103388.09;5055431;28;20385;-69
2022/01/22 11:28:45;;;;;;;11.10;2.97;;;;;;;19.54;46.32;103383.75;5055481;28;20032;-71
2022/01/22 11:31:16;;;;;;;9.93;2.55;;;;;;;19.54;46.34;103384.59;5054325;28;20021;-68
2022/01/22 11:33:46;;;;;;;8.52;3.08;;;;;;;19.53;46.51;103384.69;5055080;28;20037;-70
2022/01/22 11:36:36;;;;;;;8.90;2.65;;;;;;;19.53;46.18;103393.47;5055092;28;20033;-69
2022/01/22 11:39:02;;;;;;;10.32;3.08;;;;;;;19.53;46.21;103395.25;5054580;28;20059;-68
2022/01/22 11:41:28;;;;;;;8.75;2.80;;;;;;;19.51;46.29;103405.91;5054492;28;20389;-69
2022/01/22 11:44:09;;;;;;;9.20;2.55;;;;;;;19.50;46.17;103401.56;5054444;28;20021;-74
2022/01/22 11:46:58;;;;;;;10.20;3.08;;;;;;;19.50;46.47;103392.75;5055440;28;20493;-73
2022/01/22 11:49:27;;;;;;;10.73;3.20;;;;;;;19.44;45.92;103378.06;5055245;28;20021;-69
2022/01/22 11:52:14;;;;;;;7.40;2.63;;;;;;;19.40;46.18;103379.97;5054213;28;20111;-70
2022/01/22 11:55:07;;;;;;;9.63;2.92;;;;;;;19.36;46.25;103389.00;5050515;28;20072;-72
2022/01/22 11:57:33;;;;;;;10.75;3.25;;;;;;;19.34;46.81;103392.63;5054964;28;20037;-73
2022/01/22 12:00:17;;;;;;;11.48;3.70;;;;;;;19.32;46.67;103389.19;5054653;28;20473;-68
2022/01/22 12:02:43;;;;;;;12.32;5.40;;;;;;;19.32;46.89;103394.47;5054606;28;20037;-70
2022/01/22 12:05:08;;;;;;;14.85;7.38;;;;;;;19.29;47.31;103392.81;5053472;28;20025;-69
2022/01/22 12:07:37;;;;;;;15.60;8.55;;;;;;;19.30;46.81;103394.56;5054620;28;20033;-69
2022/01/22 12:10:22;;;;;;;15.02;8.73;;;;;;;19.28;46.91;103395.53;5054511;28;20389;-72
2022/01/22 12:15:42;;;;;;;15.85;9.90;;;;;;;19.34;47.27;103397.91;5055013;28;20025;-72
2022/01/22 12:18:12;;;;;;;14.93;9.38;;;;;;;19.36;46.99;103391.63;5055165;28;20033;-71
2022/01/22 12:23:18;;;;;;;17.60;9.75;;;;;;;19.46;46.98;103385.91;5054793;28;20039;-69
2022/01/22 12:25:43;;;;;;;19.00;9.77;;;;;;;19.49;47.27;103391.06;5054209;28;20040;-70
2022/01/22 12:28:11;;;;;;;18.70;10.20;;;;;;;19.50;47.02;103388.34;5054094;28;20029;-74
2022/01/22 12:30:51;;;;;;;20.48;9.95;;;;;;;19.53;46.74;103395.25;5054993;28;20029;-73
2022/01/22 12:33:29;;;;;;;15.75;8.73;;;;;;;19.55;46.98;103394.28;5053587;28;20116;-74
2022/01/22 12:36:12;;;;;;;15.80;8.55;;;;;;;19.57;46.88;103395.03;5056253;28;20427;-71
2022/01/22 12:38:45;;;;;;;15.40;8.15;;;;;;;19.58;46.92;103396.78;5055535;28;20468;-73
2022/01/22 12:41:30;;;;;;;15.52;8.07;;;;;;;19.58;46.65;103395.88;5053717;28;20056;-70
2022/01/22 12:44:25;;;;;;;16.85;7.82;;;;;;;19.60;46.69;103390.53;5054623;28;20112;-71
2022/01/22 12:46:52;;;;;;;12.30;7.32;;;;;;;19.59;46.50;103384.41;5054075;28;20033;-72
2022/01/22 12:49:20;;;;;;;14.52;7.68;;;;;;;19.57;46.38;103387.13;5053584;28;20044;-71
2022/01/22 12:51:47;;;;;;;15.82;7.60;;;;;;;19.56;46.89;103395.97;5054012;28;20213;-71
2022/01/22 12:54:12;;;;;;;12.63;7.68;;;;;;;19.57;46.96;103392.41;5054720;28;20106;-71
2022/01/22 12:56:51;;;;;;;17.30;7.78;;;;;;;19.58;47.46;103391.47;5053906;28;20029;-71
2022/01/22 12:59:18;;;;;;;15.15;6.90;;;;;;;19.60;47.72;103395.81;5054189;28;20029;-70
2022/01/22 13:01:45;;;;;;;14.75;7.10;;;;;;;19.65;47.60;103397.34;5053207;28;20036;-74
2022/01/22 13:04:11;;;;;;;16.83;6.95;;;;;;;19.67;47.45;103399.91;5053666;28;20033;-67
2022/01/22 13:06:43;;;;;;;14.00;6.32;;;;;;;19.66;47.62;103399.06;5053523;28;20043;-68
2022/01/22 13:09:10;;;;;;;12.50;6.43;;;;;;;19.69;47.48;103408.63;5052996;28;20092;-70
2022/01/22 13:11:44;;;;;;;15.27;6.80;;;;;;;19.68;47.60;103401.63;5053271;28;20083;-70
2022/01/22 13:14:10;;;;;;;15.55;6.43;;;;;;;19.65;47.68;103402.63;5054141;28;20058;-69
2022/01/22 13:16:46;;;;;;;15.52;7.20;;;;;;;19.67;48.01;103397.25;5052910;28;20104;-70